Renfrew, Canada
Current Conditions -  °F | °C
As of 2:00 AM on Monday 24 Nov 2014 (Local Time) from CYWA Reporting Station
Broken Clouds Broken Clouds  
Wind Chill: 36°   Ceiling: 6700
Heat Index: 43°   Visibility: 9mi
Dew Point: 36°   Wind: 13mph
Humidity: 76%   Direction: 130°SE
Pressure: 29.59"   Gusts: NA
Location:  45.47°N, 76.68°W
Report Text: CYWA 240700Z AUTO 13011KT 9SM BKN067 06/02 A2959 RMK SLP025
Loading
Personal Weather Stations






























Interactive Weather Map New forecast layout! Learn more

10-Day Weather Forecast

Advertisements
Track Severe Weather on mobile